메인 페이지
METAR-TAF:

METAR-TAF

공항 :

미들랜드, 텍사스, 미국

위도: 31-56-52N, 경도: 102-12-31W, 고도: 875m

현재 날씨관측

예보는 1 시간 0분 전, 23:53시(UTC)에 발표되었습니다.
남동14kt
온도 35°C
습도 27%
기압 1013 hPa
시정: 16.1km
맑음

METAR: KMAF 142353Z 14014KT 10SM CLR 35/13 A2992 RMK AO2 SLP078 T03500133 10361 20322 58018

시각: 19:53 (00:53 UTC)

예보

예보는 1 시간 33분 전, 23:20시(UTC)에 발표되었습니다.
예보 대상 시간: 15일 00시부터 15일 24시까지 (UTC)
남남동15kt, 순간 최대 풍속 22kt
시정: 10km
고도 7000ft 상공 구름 보통
15일 0200시부터 (UTC)
남동10kt
시정: 10km
맑음
15일 1600시부터 (UTC)
남남동18kt, 순간 최대 풍속 24kt
시정: 10km
고도 25000ft 상공 구름 보통

TAF: KMAF 142320Z 1500/1524 15015G22KT P6SM SCT070 FM150200 14010KT P6SM SKC FM151600 16018G24KT P6SM SCT250

4,000개 이상의 공항 관측 자료 및 예보 (METAR 및 TAF 보고).

지도상에서 검색 가능한 기상관측소가 노란 점과 빨간 점으로 표시되어 있습니다.

기상관측소 명을 보려면 표시 위로 마우스를 이동하세요.

날씨 관측과 예보를 보려면 클릭하세요.

지도 변경 : 확대하려면 엑스 표시가 있는 녹색 버튼, 축소하려면 빼기 표시가 있는 녹색 버튼, 다음 페이지의 지도를 보려면 녹색 화살표를 클릭하세요.


METAR-TAF: